Aviation Digital Data Service (ADDS)

Output produced by METARs form (1346 UTC 24 August 2019)
found at http://www.aviationweather.gov/metar/data/
 
Forecast for: DGAA (ACCRA/KOTOKA INT, GH)
Text: TAF DGAA 241100Z 2412/2518 20015KT 9999 BKN016 BKN023
Forecast period: 1200 to 2300 UTC 24 August 2019
Forecast type: FROM: standard forecast or significant change
Winds: from the SSW (200 degrees) at 17 MPH (15 knots; 7.7 m/s)
Visibility: 6 or more miles 10+ km)
Ceiling: 1600 feet AGL
Clouds: broken clouds at 1600 feet AGL
broken clouds at 2300 feet AGL
Weather: no significant weather forecast for this period
Text: BECMG 2423/2501 26005KT SCT010 BKN015
Forecast period: 2300 UTC 24 August 2019 to 0600 UTC 25 August 2019
Forecast type: BECOMING: Conditions expected to become as follows by 0100 UTC 25 August 2019
Winds: from the W (260 degrees) at 6 MPH (5 knots; 2.6 m/s)
Visibility: 6 or more miles 10+ km)
Ceiling: 1500 feet AGL
Clouds: scattered clouds at 1000 feet AGL
broken clouds at 1500 feet AGL
Weather: no significant weather forecast for this period
Text: BECMG 2506/2508 BKN014
Forecast period: 0600 to 1800 UTC 25 August 2019
Forecast type: BECOMING: Conditions expected to become as follows by 0800 UTC 25 August 2019
Winds: from the W (260 degrees) at 6 MPH (5 knots; 2.6 m/s)
Visibility: 6 or more miles 10+ km)
Ceiling: 1400 feet AGL
Clouds: broken clouds at 1400 feet AGL
Weather: no significant weather forecast for this period